KDRI/DRI METAR and TAF weather

Enter ICAO airport designator
Station Type Date Time Source
KDRI METAR 2022/12/04 12:55 UTC NOAA

KDRI 041255Z AUTO 35003KT 10SM OVC011 13/11 A3030 RMK AO2 T01340110 $


Station Type Date Time Source
KDRI Decoded METAR 2022/12/04 12:55 UTC NOAA

De Ridder, Beauregard Parish Airport, LA, United States (KDRI) 30-49-54N 093-20-23W
Dec 04, 2022 - 07:55 AM EST / 2022.12.04 1255 UTC
Wind: from the N (350 degrees) at 3 MPH (3 KT):0
Visibility: 10 mile(s):0
Sky conditions: overcast
Temperature: 56.1 F (13.4 C)
Dew Point: 51.8 F (11.0 C)
Relative Humidity: 85%
Pressure (altimeter): 30.3 in. Hg (1026 hPa)
ob: KDRI 041255Z AUTO 35003KT 10SM OVC011 13/11 A3030 RMK AO2 T01340110
cycle: 13

Station Type Date Time Source
KDRI TAF UTC NOAA

Error!

Example: see airport list